createdAt,value
2023-03-06T00:07:26.715Z,28.73
2023-03-06T00:17:31.251Z,33.80
2023-03-06T00:27:34.936Z,34.87
2023-03-06T00:37:39.805Z,37.17
2023-03-06T00:47:43.131Z,40.07
2023-03-06T00:57:47.705Z,37.17
2023-03-06T01:07:50.894Z,39.97
2023-03-06T01:17:56.979Z,36.77
2023-03-06T01:28:00.146Z,37.70
2023-03-06T01:38:04.718Z,35.73
2023-03-06T01:48:08.080Z,36.00
2023-03-06T01:58:19.301Z,39.20
2023-03-06T02:08:24.214Z,37.40
2023-03-06T02:18:29.536Z,30.57
2023-03-06T02:28:34.201Z,33.73
2023-03-06T02:38:42.131Z,35.37
2023-03-06T02:48:46.744Z,36.67
2023-03-06T02:58:50.157Z,40.80
2023-03-06T03:08:54.867Z,41.10
2023-03-06T03:18:59.028Z,39.13
2023-03-06T03:29:05.419Z,38.93
2023-03-06T03:39:08.925Z,35.87
2023-03-06T03:49:13.904Z,41.67
2023-03-06T03:59:17.229Z,35.60
2023-03-06T04:09:32.939Z,37.07
2023-03-06T04:19:36.294Z,38.93
2023-03-06T04:29:40.914Z,38.00
2023-03-06T04:39:44.290Z,38.00
2023-03-06T04:49:48.882Z,37.53
2023-03-06T04:59:52.192Z,37.23
2023-03-06T05:09:56.890Z,39.27
2023-03-06T05:20:00.246Z,38.57
2023-03-06T05:30:05.646Z,35.07
2023-03-06T05:40:10.686Z,38.43
2023-03-06T05:50:15.306Z,37.43
2023-03-06T06:00:20.220Z,40.43
2023-03-06T06:10:24.827Z,41.67
2023-03-06T06:20:28.565Z,38.20
2023-03-06T06:30:33.524Z,36.97
2023-03-06T06:40:36.785Z,41.53
2023-03-06T06:50:41.383Z,43.17
2023-03-06T07:00:44.576Z,37.97
2023-03-06T07:10:49.110Z,35.33
2023-03-06T07:20:53.942Z,40.63
2023-03-06T07:30:58.517Z,35.90
2023-03-06T07:41:01.776Z,43.00
2023-03-06T07:51:08.817Z,39.70
2023-03-06T08:01:13.979Z,41.97
2023-03-06T08:11:22.314Z,36.67
2023-03-06T08:21:27.008Z,37.17
2023-03-06T08:31:33.955Z,36.73
2023-03-06T08:41:38.208Z,32.57
2023-03-06T08:51:43.032Z,36.67
2023-03-06T09:01:46.687Z,40.10
2023-03-06T09:11:53.629Z,39.53
2023-03-06T09:21:57.798Z,34.90
2023-03-06T09:32:02.465Z,36.33
2023-03-06T09:42:08.449Z,36.43
2023-03-06T09:52:32.574Z,34.63
2023-03-06T10:02:41.357Z,34.13
2023-03-06T10:12:51.597Z,31.77
2023-03-06T10:23:12.047Z,31.97
2023-03-06T10:33:29.789Z,29.13
2023-03-06T10:43:35.804Z,31.77
2023-03-06T10:53:51.492Z,29.73
2023-03-06T11:03:54.693Z,30.93
2023-03-06T11:14:00.555Z,23.27
2023-03-06T11:24:06.848Z,27.23
2023-03-06T11:34:21.968Z,19.50
2023-03-06T11:44:31.878Z,15.27
2023-03-06T11:54:37.301Z,28.20
2023-03-06T12:04:50.969Z,13.30
2023-03-06T12:15:07.864Z,14.43
2023-03-06T12:25:38.123Z,14.90
2023-03-06T12:35:57.357Z,14.27
2023-03-06T12:46:04.716Z,16.83
2023-03-06T12:56:10.419Z,13.20
2023-03-06T13:06:34.117Z,11.00
2023-03-06T13:16:41.145Z,10.87
2023-03-06T13:27:07.306Z,12.57
2023-03-06T13:37:53.132Z,12.20
2023-03-06T13:48:24.597Z,11.27
2023-03-06T13:58:39.765Z,10.87
2023-03-06T14:08:45.722Z,9.83
2023-03-06T14:18:50.812Z,9.70
2023-03-06T14:28:58.759Z,8.57
2023-03-06T14:39:04.606Z,9.17
2023-03-06T14:49:10.690Z,10.30
2023-03-06T14:59:16.994Z,8.80
2023-03-06T15:09:26.133Z,7.37
2023-03-06T15:19:29.355Z,10.77
2023-03-06T15:29:34.795Z,10.03
2023-03-06T15:39:39.711Z,7.83
2023-03-06T15:49:44.301Z,9.03
2023-03-06T15:59:47.773Z,8.47
2023-03-06T16:09:52.379Z,11.30
2023-03-06T16:19:55.638Z,7.87
2023-03-06T16:30:00.226Z,8.77
2023-03-06T16:40:06.875Z,9.20
2023-03-06T16:50:22.879Z,10.20
2023-03-06T17:00:30.864Z,8.83
2023-03-06T17:10:35.956Z,11.40
2023-03-06T17:20:39.203Z,11.33
2023-03-06T17:30:43.733Z,13.60
2023-03-06T17:40:46.929Z,12.03
2023-03-06T17:50:55.850Z,12.47
2023-03-06T18:00:59.719Z,11.13
2023-03-06T18:11:06.398Z,12.67
2023-03-06T18:21:12.084Z,11.90
2023-03-06T18:31:18.033Z,10.63
2023-03-06T18:41:22.221Z,14.97
2023-03-06T18:51:27.400Z,11.27
2023-03-06T19:01:31.417Z,12.50
2023-03-06T19:11:36.121Z,13.73
2023-03-06T19:21:39.370Z,12.40
2023-03-06T19:31:44.111Z,11.43
2023-03-06T19:41:48.392Z,10.17
2023-03-06T19:51:52.961Z,11.87
2023-03-06T20:01:56.252Z,10.77
2023-03-06T20:12:01.535Z,10.90
2023-03-06T20:22:05.103Z,12.03
2023-03-06T20:32:09.800Z,12.00
2023-03-06T20:42:12.966Z,12.30
2023-03-06T20:52:17.636Z,12.43
2023-03-06T21:02:21.911Z,12.67
2023-03-06T21:12:26.555Z,12.13
2023-03-06T21:22:30.283Z,13.53
2023-03-06T21:32:34.921Z,13.03
2023-03-06T21:42:38.211Z,11.80
2023-03-06T21:52:42.817Z,11.90
2023-03-06T22:02:47.739Z,12.40
2023-03-06T22:12:52.306Z,11.90
2023-03-06T22:22:55.499Z,10.83
2023-03-06T22:33:00.114Z,13.10
2023-03-06T22:43:03.324Z,13.83
2023-03-06T22:53:08.066Z,10.73
2023-03-06T23:03:11.319Z,12.60
2023-03-06T23:13:15.897Z,13.43
2023-03-06T23:23:38.881Z,13.20
2023-03-06T23:33:43.505Z,12.47
2023-03-06T23:43:46.778Z,12.10
2023-03-06T23:53:56.148Z,13.87
